Time;durP1;ratioP1;P1;durP2;ratioP2;P2;SDS_P1;SDS_P2;PMS_P1;PMS_P2;Temp;Humidity;BMP_temperature;BMP_pressure;BME280_temperature;BME280_humidity;BME280_pressure;Samples;Min_cycle;Max_cycle;Signal;HPM_P1;HPM_P2
2023/07/30 00:00:02;;;;;;;10.55;5.53;;;;;;;19.06;100.00;100297.34;5079010;28;20024;-76
2023/07/30 00:02:27;;;;;;;5.88;4.97;;;;;;;19.07;100.00;100293.69;5077469;28;20104;-75
2023/07/30 00:04:54;;;;;;;7.38;5.38;;;;;;;19.09;100.00;100300.38;5077650;28;20127;-76
2023/07/30 00:07:19;;;;;;;6.68;5.38;;;;;;;19.18;100.00;100308.91;5085239;28;20388;-75
2023/07/30 00:09:45;;;;;;;8.60;5.57;;;;;;;19.19;100.00;100302.63;5088427;28;20038;-74
2023/07/30 00:12:10;;;;;;;7.47;4.78;;;;;;;19.17;100.00;100309.94;5092899;28;20032;-74
2023/07/30 00:14:36;;;;;;;7.95;4.53;;;;;;;19.13;100.00;100319.28;5092474;28;20100;-72
2023/07/30 00:17:02;;;;;;;5.32;4.70;;;;;;;19.15;100.00;100315.41;5092175;28;20067;-72
2023/07/30 00:19:27;;;;;;;6.03;4.93;;;;;;;19.18;100.00;100330.88;5092623;28;20108;-72
2023/07/30 00:21:53;;;;;;;8.20;4.53;;;;;;;19.20;100.00;100320.09;5091491;28;20031;-72
2023/07/30 00:24:18;;;;;;;6.82;5.18;;;;;;;19.23;100.00;100320.50;5092530;28;20035;-72
2023/07/30 00:26:43;;;;;;;7.40;5.22;;;;;;;19.26;100.00;100329.03;5091935;28;20036;-75
2023/07/30 00:29:09;;;;;;;8.88;5.78;;;;;;;19.28;100.00;100327.81;5092815;28;20544;-76
2023/07/30 00:31:34;;;;;;;8.05;5.82;;;;;;;19.31;100.00;100334.53;5080387;28;20111;-75
2023/07/30 00:34:00;;;;;;;9.48;6.43;;;;;;;19.29;100.00;100326.81;5091825;28;20024;-74
2023/07/30 00:36:25;;;;;;;8.98;6.30;;;;;;;19.29;100.00;100324.16;5092510;28;20147;-75
2023/07/30 00:38:51;;;;;;;7.90;5.93;;;;;;;19.30;100.00;100317.84;5091466;28;20071;-71
2023/07/30 00:41:16;;;;;;;8.65;5.38;;;;;;;19.28;100.00;100311.97;5092134;28;20035;-71
2023/07/30 00:43:41;;;;;;;10.05;6.13;;;;;;;19.29;100.00;100316.22;5092071;28;20023;-71
2023/07/30 00:46:07;;;;;;;8.18;5.43;;;;;;;19.28;100.00;100304.03;5091989;28;20138;-74
2023/07/30 00:48:33;;;;;;;10.38;6.22;;;;;;;19.29;100.00;100302.22;5090694;28;20078;-73
2023/07/30 00:51:00;;;;;;;8.55;5.28;;;;;;;19.28;100.00;100297.94;5089439;28;20127;-75
2023/07/30 00:53:27;;;;;;;5.50;4.65;;;;;;;19.31;100.00;100300.19;5072337;28;20032;-76
2023/07/30 00:55:53;;;;;;;8.82;5.35;;;;;;;19.31;100.00;100287.78;5090464;28;20123;-76
2023/07/30 00:58:21;;;;;;;6.50;4.85;;;;;;;19.30;100.00;100299.38;5092569;28;20096;-75
2023/07/30 01:00:46;;;;;;;5.90;5.15;;;;;;;19.31;100.00;100290.44;5091313;28;20118;-72
2023/07/30 01:03:12;;;;;;;5.18;4.55;;;;;;;19.29;100.00;100286.38;5092415;28;20063;-72
2023/07/30 01:05:38;;;;;;;6.65;3.97;;;;;;;19.30;100.00;100278.25;5091706;28;20120;-73
2023/07/30 01:08:03;;;;;;;6.55;3.72;;;;;;;19.30;100.00;100277.44;5091166;28;20032;-72
2023/07/30 01:10:31;;;;;;;8.95;4.38;;;;;;;19.30;100.00;100267.69;5091687;28;20031;-71
2023/07/30 01:13:01;;;;;;;6.00;3.40;;;;;;;19.28;100.00;100255.69;5091088;28;20089;-71
2023/07/30 01:15:28;;;;;;;4.43;3.17;;;;;;;19.29;100.00;100255.47;5091325;28;20048;-70
2023/07/30 01:17:54;;;;;;;4.57;3.30;;;;;;;19.28;100.00;100245.94;5090914;28;20034;-67
2023/07/30 01:20:21;;;;;;;5.88;4.07;;;;;;;19.34;100.00;100247.75;5091577;28;20028;-68
2023/07/30 01:22:47;;;;;;;4.35;2.95;;;;;;;19.33;100.00;100240.84;5090940;28;20028;-69
2023/07/30 01:25:13;;;;;;;6.30;2.80;;;;;;;19.32;100.00;100239.22;5091494;28;20096;-68
2023/07/30 01:27:44;;;;;;;4.10;3.25;;;;;;;19.35;100.00;100241.44;5091374;28;20039;-68
2023/07/30 01:30:09;;;;;;;7.13;3.75;;;;;;;19.33;100.00;100245.31;5088909;28;20020;-68
2023/07/30 01:32:36;;;;;;;5.32;3.22;;;;;;;19.37;100.00;100239.41;5090558;28;20126;-68
2023/07/30 01:35:03;;;;;;;3.60;3.17;;;;;;;19.40;100.00;100238.97;5090936;28;20098;-68
2023/07/30 01:37:29;;;;;;;4.82;3.25;;;;;;;19.42;100.00;100250.16;5091283;28;20027;-68
2023/07/30 01:39:56;;;;;;;3.47;3.10;;;;;;;19.43;100.00;100267.63;5090654;28;20037;-68
2023/07/30 01:42:21;;;;;;;4.43;2.40;;;;;;;19.45;100.00;100284.06;5091280;28;20067;-67
2023/07/30 01:44:46;;;;;;;5.80;2.95;;;;;;;19.46;100.00;100274.31;5090640;28;20606;-67
2023/07/30 01:47:12;;;;;;;4.18;2.47;;;;;;;19.44;100.00;100281.66;5091258;28;20051;-68
2023/07/30 01:49:37;;;;;;;3.65;3.15;;;;;;;19.41;100.00;100280.22;5091143;28;20036;-67
2023/07/30 01:52:03;;;;;;;4.15;3.17;;;;;;;19.47;100.00;100284.69;5086349;28;20096;-67
2023/07/30 01:54:28;;;;;;;4.10;2.22;;;;;;;19.45;100.00;100270.88;5080110;28;20101;-67
2023/07/30 01:56:54;;;;;;;5.10;2.30;;;;;;;19.46;100.00;100266.41;5090459;28;20024;-67
2023/07/30 01:59:19;;;;;;;2.35;1.60;;;;;;;19.45;100.00;100249.72;5090983;28;20024;-67
2023/07/30 02:01:45;;;;;;;2.25;1.45;;;;;;;19.42;100.00;100247.50;5082104;28;20029;-66
2023/07/30 02:04:10;;;;;;;2.28;1.77;;;;;;;19.48;100.00;100227.38;5090932;28;20360;-66
2023/07/30 02:06:36;;;;;;;2.83;1.40;;;;;;;19.54;100.00;100208.88;5090889;28;20127;-65
2023/07/30 02:09:02;;;;;;;2.65;1.60;;;;;;;19.55;100.00;100197.31;5090346;28;20024;-64
2023/07/30 02:11:28;;;;;;;2.67;1.30;;;;;;;19.57;100.00;100172.50;5090863;28;20387;-66
2023/07/30 02:13:53;;;;;;;4.70;2.38;;;;;;;19.54;100.00;100165.81;5090324;28;20086;-66
2023/07/30 02:16:19;;;;;;;2.28;1.50;;;;;;;19.50;100.00;100167.22;5090737;28;20048;-66
2023/07/30 02:18:44;;;;;;;2.08;1.50;;;;;;;19.46;100.00;100187.13;5090276;28;20101;-65
2023/07/30 02:21:10;;;;;;;3.17;2.15;;;;;;;19.44;100.00;100248.09;5090758;28;20028;-66
2023/07/30 02:23:35;;;;;;;1.98;1.15;;;;;;;19.44;100.00;100289.56;5090714;28;20024;-64
2023/07/30 02:26:01;;;;;;;3.58;1.48;;;;;;;19.39;100.00;100329.81;5090152;28;20036;-65
2023/07/30 02:28:26;;;;;;;5.68;0.80;;;;;;;19.20;100.00;100359.72;5090673;28;20099;-69
2023/07/30 02:30:51;;;;;;;4.53;1.13;;;;;;;18.88;100.00;100390.38;5088031;28;20097;-67
2023/07/30 02:33:17;;;;;;;2.42;0.75;;;;;;;18.65;100.00;100421.56;5090711;28;20364;-67
2023/07/30 02:35:45;;;;;;;3.03;0.75;;;;;;;18.45;100.00;100447.81;5090774;28;20457;-67
2023/07/30 02:38:11;;;;;;;1.33;0.47;;;;;;;18.32;100.00;100472.31;5090773;28;20036;-67
2023/07/30 02:40:36;;;;;;;1.20;0.43;;;;;;;18.31;100.00;100475.16;5090825;28;20054;-65
2023/07/30 02:43:02;;;;;;;4.25;0.90;;;;;;;18.39;100.00;100467.09;5090415;28;20497;-66
2023/07/30 02:45:27;;;;;;;4.63;0.65;;;;;;;18.37;100.00;100442.72;5094480;28;20042;-66
2023/07/30 02:47:53;;;;;;;1.45;0.75;;;;;;;18.23;100.00;100413.66;5094059;28;20035;-68
2023/07/30 02:50:18;;;;;;;4.03;0.50;;;;;;;18.14;100.00;100399.00;5094676;28;20127;-67
2023/07/30 02:52:44;;;;;;;1.55;0.50;;;;;;;18.07;100.00;100387.59;5078444;28;20110;-67
2023/07/30 02:55:09;;;;;;;1.65;0.40;;;;;;;17.87;100.00;100368.25;5094339;28;20059;-68
2023/07/30 02:57:35;;;;;;;1.23;0.30;;;;;;;17.73;100.00;100363.88;5094202;28;20032;-67
2023/07/30 03:00:00;;;;;;;0.98;0.20;;;;;;;17.69;100.00;100376.63;5093701;28;20039;-68
2023/07/30 03:02:26;;;;;;;1.63;0.40;;;;;;;17.71;100.00;100358.81;5094222;28;20024;-68
2023/07/30 03:04:51;;;;;;;0.65;0.30;;;;;;;17.85;100.00;100363.16;5093598;28;20032;-68
2023/07/30 03:07:18;;;;;;;0.65;0.20;;;;;;;17.82;100.00;100355.66;5094101;28;20042;-69
2023/07/30 03:09:43;;;;;;;1.50;0.13;;;;;;;17.77;100.00;100349.31;5093488;28;20024;-68
2023/07/30 03:12:09;;;;;;;2.67;0.10;;;;;;;17.58;100.00;100341.06;5093977;28;20036;-69
2023/07/30 03:14:34;;;;;;;0.38;0.10;;;;;;;17.55;100.00;100336.19;5093782;28;20692;-68
2023/07/30 03:17:00;;;;;;;1.08;0.20;;;;;;;17.49;100.00;100331.69;5093381;28;20040;-68
2023/07/30 03:19:25;;;;;;;0.45;0.20;;;;;;;17.49;100.00;100313.25;5093809;28;20032;-68
2023/07/30 03:21:50;;;;;;;0.63;0.20;;;;;;;17.49;100.00;100307.97;5093216;28;20483;-68
2023/07/30 03:24:16;;;;;;;1.10;0.20;;;;;;;17.51;100.00;100298.06;5093806;28;20124;-68
2023/07/30 03:26:41;;;;;;;0.77;0.15;;;;;;;17.54;100.00;100284.50;5093559;28;20028;-68
2023/07/30 03:29:06;;;;;;;0.40;0.20;;;;;;;17.55;100.00;100278.22;5093189;28;20460;-69
2023/07/30 03:31:32;;;;;;;0.70;0.30;;;;;;;17.59;100.00;100263.66;5091999;28;20028;-69
2023/07/30 03:33:58;;;;;;;0.65;0.20;;;;;;;17.64;100.00;100259.63;5093038;28;20115;-69
2023/07/30 03:36:24;;;;;;;1.55;0.20;;;;;;;17.68;100.00;100266.19;5093923;28;20024;-67
2023/07/30 03:38:49;;;;;;;2.10;0.25;;;;;;;17.73;100.00;100277.75;5092921;28;20040;-69
2023/07/30 03:41:14;;;;;;;1.75;0.20;;;;;;;17.77;100.00;100273.72;5093397;28;20038;-68
2023/07/30 03:43:40;;;;;;;1.20;0.20;;;;;;;17.79;100.00;100257.72;5093254;28;20039;-68
2023/07/30 03:46:05;;;;;;;0.52;0.20;;;;;;;17.83;100.00;100248.41;5092997;28;20028;-71
2023/07/30 03:48:31;;;;;;;0.30;0.15;;;;;;;17.88;100.00;100241.53;5093392;28;20035;-71
2023/07/30 03:50:56;;;;;;;0.20;0.10;;;;;;;17.99;100.00;100248.03;5092747;28;20121;-73
2023/07/30 03:53:22;;;;;;;0.40;0.10;;;;;;;18.04;100.00;100229.81;5077897;28;20073;-73
2023/07/30 03:55:48;;;;;;;0.73;0.10;;;;;;;18.04;100.00;100216.63;5091481;28;20036;-71
2023/07/30 03:58:14;;;;;;;0.57;0.10;;;;;;;17.98;100.00;100208.69;5092981;28;20038;-70
2023/07/30 04:00:39;;;;;;;2.10;0.10;;;;;;;17.95;100.00;100212.56;5092961;28;20035;-72
2023/07/30 04:03:05;;;;;;;0.57;0.25;;;;;;;17.83;100.00;100211.53;5092587;28;20028;-72
2023/07/30 04:05:30;;;;;;;2.13;0.28;;;;;;;17.70;100.00;100201.75;5092939;28;20028;-72
2023/07/30 04:07:56;;;;;;;3.20;0.20;;;;;;;17.69;100.00;100188.75;5092518;28;20036;-72
2023/07/30 04:10:22;;;;;;;1.70;0.20;;;;;;;17.59;100.00;100184.63;5092902;28;20028;-72
2023/07/30 04:12:47;;;;;;;1.05;0.15;;;;;;;17.53;100.00;100169.63;5092188;28;20085;-72
2023/07/30 04:15:14;;;;;;;0.73;0.13;;;;;;;17.45;100.00;100153.19;5092633;28;20046;-72
2023/07/30 04:17:40;;;;;;;0.73;0.15;;;;;;;17.42;100.00;100149.13;5092559;28;20050;-72
2023/07/30 04:20:06;;;;;;;0.63;0.20;;;;;;;17.42;100.00;100143.88;5092113;28;20039;-72
2023/07/30 04:22:31;;;;;;;0.50;0.10;;;;;;;17.41;100.00;100144.88;5092608;28;20134;-70
2023/07/30 04:24:57;;;;;;;0.30;0.10;;;;;;;17.53;100.00;100166.97;5092039;28;20036;-70
2023/07/30 04:27:22;;;;;;;0.82;0.20;;;;;;;17.64;100.00;100170.06;5092456;28;20228;-70
2023/07/30 04:29:48;;;;;;;2.35;0.10;;;;;;;17.59;100.00;100158.28;5089880;28;20085;-70
2023/07/30 04:32:14;;;;;;;1.08;0.20;;;;;;;17.49;100.00;100142.03;5092476;28;20517;-71
2023/07/30 04:34:39;;;;;;;0.70;0.20;;;;;;;17.42;100.00;100120.16;5092372;28;20538;-72
2023/07/30 04:37:05;;;;;;;1.15;0.20;;;;;;;17.36;100.00;100115.69;5090515;28;20058;-71
2023/07/30 04:39:35;;;;;;;0.98;0.10;;;;;;;17.34;100.00;100112.44;5092281;28;20036;-71
2023/07/30 04:42:01;;;;;;;0.65;0.10;;;;;;;17.34;100.00;100117.69;5091698;28;20115;-71
2023/07/30 04:44:27;;;;;;;0.70;0.10;;;;;;;17.44;100.00;100112.88;5092209;28;20016;-71
2023/07/30 04:46:52;;;;;;;1.40;0.10;;;;;;;17.46;100.00;100116.13;5091606;28;20368;-71
2023/07/30 04:49:18;;;;;;;0.73;0.08;;;;;;;17.44;100.00;100115.50;5092121;28;20409;-70
2023/07/30 04:51:43;;;;;;;3.50;0.20;;;;;;;17.56;100.00;100123.63;5088286;28;20570;-70
2023/07/30 04:54:08;;;;;;;0.60;0.13;;;;;;;17.65;100.00;100116.38;5079938;28;20111;-69
2023/07/30 04:56:34;;;;;;;1.02;0.10;;;;;;;17.63;100.00;100136.81;5091922;28;20036;-71
2023/07/30 04:59:00;;;;;;;0.30;0.10;;;;;;;17.67;100.00;100144.16;5091194;28;20028;-70
2023/07/30 05:01:26;;;;;;;4.85;0.20;;;;;;;17.78;100.00;100161.22;5091789;28;20476;-70
2023/07/30 05:03:51;;;;;;;1.02;0.10;;;;;;;17.85;100.00;100167.34;5091262;28;20051;-70
2023/07/30 05:06:17;;;;;;;1.95;0.03;;;;;;;17.88;100.00;100178.28;5091636;28;20046;-70
2023/07/30 05:08:42;;;;;;;0.22;0.10;;;;;;;17.92;100.00;100198.97;5091699;28;20028;-70
2023/07/30 05:11:08;;;;;;;0.93;0.10;;;;;;;17.91;100.00;100206.06;5091317;28;20028;-70
2023/07/30 05:13:33;;;;;;;0.52;0.20;;;;;;;17.84;100.00;100219.22;5091622;28;20471;-70
2023/07/30 05:15:59;;;;;;;0.35;0.10;;;;;;;17.82;100.00;100225.72;5090696;28;20492;-70
2023/07/30 05:18:24;;;;;;;0.40;0.15;;;;;;;17.89;100.00;100230.00;5091469;28;20387;-70
2023/07/30 05:20:49;;;;;;;0.63;0.20;;;;;;;17.95;100.00;100223.13;5090942;28;20036;-69
2023/07/30 05:23:15;;;;;;;1.27;0.20;;;;;;;18.03;100.00;100222.91;5091484;28;20027;-68
2023/07/30 05:25:41;;;;;;;1.63;0.25;;;;;;;18.10;100.00;100230.84;5091319;28;20093;-68
2023/07/30 05:28:06;;;;;;;0.57;0.20;;;;;;;18.14;100.00;100239.97;5090869;28;20118;-69
2023/07/30 05:30:31;;;;;;;1.35;0.30;;;;;;;18.18;100.00;100247.28;5088901;28;20068;-69
2023/07/30 05:32:57;;;;;;;0.90;0.30;;;;;;;18.21;100.00;100251.38;5090757;28;20078;-68
2023/07/30 05:35:22;;;;;;;0.95;0.30;;;;;;;18.20;100.00;100250.56;5091289;28;20027;-68
2023/07/30 05:37:48;;;;;;;4.45;0.30;;;;;;;18.30;100.00;100259.91;5091115;28;20031;-69
2023/07/30 05:40:13;;;;;;;1.95;0.38;;;;;;;18.37;100.00;100261.56;5091101;28;20032;-68
2023/07/30 05:42:39;;;;;;;2.05;0.40;;;;;;;18.48;100.00;100266.22;5091041;28;20039;-68
2023/07/30 05:45:04;;;;;;;4.80;0.40;;;;;;;18.58;100.00;100253.44;5090559;28;20046;-68
2023/07/30 05:47:30;;;;;;;0.80;0.30;;;;;;;18.65;100.00;100257.94;5091215;28;20089;-68
2023/07/30 05:49:55;;;;;;;1.80;0.50;;;;;;;18.67;100.00;100254.09;5090549;28;20597;-68
2023/07/30 05:52:21;;;;;;;1.80;0.30;;;;;;;18.66;100.00;100254.31;5081796;28;20028;-68
2023/07/30 05:54:46;;;;;;;2.63;0.40;;;;;;;18.75;100.00;100261.81;5084562;28;20036;-69
2023/07/30 05:57:11;;;;;;;0.77;0.40;;;;;;;18.72;100.00;100261.41;5090992;28;20044;-68
2023/07/30 05:59:37;;;;;;;0.70;0.50;;;;;;;18.69;100.00;100262.63;5090929;28;20036;-68
2023/07/30 06:02:03;;;;;;;1.60;0.40;;;;;;;18.79;100.00;100264.88;5090465;28;20039;-68
2023/07/30 06:04:29;;;;;;;2.22;0.40;;;;;;;18.90;100.00;100256.34;5091059;28;20073;-68
2023/07/30 06:06:54;;;;;;;0.75;0.40;;;;;;;18.98;100.00;100268.50;5090803;28;20119;-69
2023/07/30 06:09:20;;;;;;;0.90;0.50;;;;;;;18.89;100.00;100276.66;5091040;28;20146;-68
2023/07/30 06:11:45;;;;;;;1.15;0.30;;;;;;;18.99;100.00;100275.41;5090249;28;20445;-68
2023/07/30 06:14:11;;;;;;;1.40;0.50;;;;;;;19.06;100.00;100276.22;5090778;28;20537;-69
2023/07/30 06:16:36;;;;;;;1.00;0.38;;;;;;;19.11;100.00;100285.16;5090487;28;20559;-68
2023/07/30 06:19:02;;;;;;;0.77;0.35;;;;;;;19.18;100.00;100287.78;5091580;28;20028;-69
2023/07/30 06:21:27;;;;;;;1.90;0.40;;;;;;;19.26;100.00;100292.88;5094840;28;20122;-68
2023/07/30 06:23:53;;;;;;;1.60;0.50;;;;;;;19.28;100.00;100290.84;5094221;28;20080;-69
2023/07/30 06:26:18;;;;;;;1.80;0.30;;;;;;;19.29;100.00;100296.94;5094795;28;20039;-69
2023/07/30 06:28:44;;;;;;;4.13;0.35;;;;;;;19.25;100.00;100306.28;5094268;28;20036;-69
2023/07/30 06:31:09;;;;;;;0.70;0.30;;;;;;;19.22;100.00;100299.56;5093208;28;20028;-69
2023/07/30 06:33:35;;;;;;;1.10;0.30;;;;;;;19.23;100.00;100298.56;5094616;28;20104;-69
2023/07/30 06:36:00;;;;;;;0.80;0.40;;;;;;;19.30;100.00;100302.00;5094138;28;20383;-69
2023/07/30 06:38:25;;;;;;;0.90;0.30;;;;;;;19.33;100.00;100283.09;5094453;28;20494;-69
2023/07/30 06:40:51;;;;;;;3.03;0.50;;;;;;;19.42;100.00;100289.78;5092799;28;20111;-72
2023/07/30 06:43:16;;;;;;;6.80;0.43;;;;;;;19.45;100.00;100285.91;5087169;28;20019;-72
2023/07/30 06:45:42;;;;;;;3.22;0.45;;;;;;;19.53;100.00;100288.38;5093000;28;20548;-71
2023/07/30 06:48:07;;;;;;;2.38;0.60;;;;;;;19.67;100.00;100289.16;5094074;28;20469;-72
2023/07/30 06:50:33;;;;;;;3.88;0.65;;;;;;;19.74;100.00;100284.66;5094385;28;20487;-72
2023/07/30 06:52:58;;;;;;;17.00;1.95;;;;;;;19.92;100.00;100279.50;5078393;28;20061;-72
2023/07/30 06:55:24;;;;;;;2.15;0.55;;;;;;;20.08;100.00;100291.44;5094334;28;20115;-72
2023/07/30 06:57:49;;;;;;;0.82;0.47;;;;;;;19.98;100.00;100297.16;5093605;28;20031;-72
2023/07/30 07:00:21;;;;;;;3.65;0.60;;;;;;;19.83;100.00;100292.16;5094104;28;20039;-72
2023/07/30 07:02:47;;;;;;;1.05;0.40;;;;;;;19.87;100.00;100295.16;5092178;28;20418;-71
2023/07/30 07:05:12;;;;;;;1.67;0.40;;;;;;;19.96;100.00;100291.28;5094082;28;20027;-72
2023/07/30 07:07:38;;;;;;;2.25;0.50;;;;;;;20.16;100.00;100299.13;5093906;28;20044;-72
2023/07/30 07:10:04;;;;;;;1.33;0.50;;;;;;;20.17;100.00;100306.84;5093527;28;20028;-72
2023/07/30 07:12:29;;;;;;;1.25;0.50;;;;;;;20.21;100.00;100307.25;5090115;28;20032;-72
2023/07/30 07:14:58;;;;;;;0.95;0.30;;;;;;;20.06;100.00;100306.69;5093220;28;20051;-72
2023/07/30 07:17:23;;;;;;;1.92;0.40;;;;;;;20.18;100.00;100308.47;5085002;28;20024;-72
2023/07/30 07:19:49;;;;;;;0.70;0.30;;;;;;;20.30;100.00;100307.81;5090605;28;20036;-72
2023/07/30 07:22:14;;;;;;;2.78;0.60;;;;;;;20.45;100.00;100308.34;5093671;28;20111;-71
2023/07/30 07:24:39;;;;;;;1.38;0.50;;;;;;;20.56;100.00;100310.31;5093690;28;20115;-72
2023/07/30 07:27:05;;;;;;;1.55;0.40;;;;;;;20.52;100.00;100304.66;5088435;28;20027;-71
2023/07/30 07:29:30;;;;;;;4.65;0.90;;;;;;;20.57;100.00;100311.13;5088140;28;20042;-72
2023/07/30 07:31:56;;;;;;;1.10;0.60;;;;;;;20.82;100.00;100314.59;5090281;28;20036;-72
2023/07/30 07:34:21;;;;;;;2.50;0.47;;;;;;;20.90;100.00;100310.88;5093563;28;20024;-72
2023/07/30 07:36:47;;;;;;;0.93;0.40;;;;;;;20.73;100.00;100314.09;5092965;28;20396;-71
2023/07/30 07:39:12;;;;;;;3.63;0.50;;;;;;;20.68;100.00;100318.41;5093313;28;20024;-71
2023/07/30 07:41:38;;;;;;;4.72;0.30;;;;;;;20.69;100.00;100320.84;5091496;28;20074;-70
2023/07/30 07:44:03;;;;;;;0.70;0.25;;;;;;;20.65;100.00;100324.94;5092357;28;20027;-71
2023/07/30 07:46:29;;;;;;;0.93;0.25;;;;;;;20.82;100.00;100333.13;5091965;28;20036;-70
2023/07/30 07:48:54;;;;;;;0.88;0.30;;;;;;;20.78;100.00;100334.63;5092873;28;20490;-70
2023/07/30 07:51:19;;;;;;;2.55;0.40;;;;;;;20.93;100.00;100339.59;5093414;28;20107;-69
2023/07/30 07:53:45;;;;;;;0.50;0.20;;;;;;;20.92;100.00;100346.72;5074320;28;20546;-70
2023/07/30 07:56:10;;;;;;;0.93;0.20;;;;;;;20.90;100.00;100343.47;5093225;28;20103;-69
2023/07/30 07:58:36;;;;;;;0.20;0.10;;;;;;;20.82;100.00;100341.91;5085998;28;20093;-69
2023/07/30 08:01:01;;;;;;;0.65;0.20;;;;;;;20.84;100.00;100334.56;5092639;28;20054;-69
2023/07/30 08:03:27;;;;;;;1.45;0.20;;;;;;;21.01;100.00;100340.13;5093106;28;20032;-68
2023/07/30 08:05:52;;;;;;;0.45;0.15;;;;;;;21.14;100.00;100341.88;5092573;28;20032;-68
2023/07/30 08:08:18;;;;;;;0.40;0.20;;;;;;;21.06;100.00;100337.66;5093058;28;20028;-69
2023/07/30 08:10:46;;;;;;;0.30;0.17;;;;;;;21.08;100.00;100337.44;5092380;28;20028;-68
2023/07/30 08:13:11;;;;;;;0.60;0.10;;;;;;;20.95;100.00;100348.13;5082560;28;20028;-68
2023/07/30 08:15:36;;;;;;;1.75;0.10;;;;;;;21.09;100.00;100347.00;5091048;28;20146;-68
2023/07/30 08:18:02;;;;;;;0.40;0.20;;;;;;;21.20;100.00;100348.97;5089292;28;23911;-68
2023/07/30 08:20:27;;;;;;;0.40;0.20;;;;;;;21.43;100.00;100349.19;5091460;28;20039;-67
2023/07/30 08:22:53;;;;;;;0.20;0.10;;;;;;;21.33;100.00;100348.06;5092096;28;20028;-67
2023/07/30 08:25:18;;;;;;;2.20;0.10;;;;;;;21.29;100.00;100350.31;5092680;28;20024;-68
2023/07/30 08:27:44;;;;;;;0.77;0.10;;;;;;;21.42;100.00;100347.56;5088426;28;20428;-68
2023/07/30 08:30:10;;;;;;;1.02;0.20;;;;;;;21.67;100.00;100349.38;5081740;28;20032;-67
2023/07/30 08:32:35;;;;;;;0.63;0.10;;;;;;;21.84;100.00;100343.25;5092755;28;20042;-67
2023/07/30 08:35:00;;;;;;;1.85;0.20;;;;;;;21.85;100.00;100350.16;5091929;28;20024;-67
2023/07/30 08:37:26;;;;;;;0.25;0.00;;;;;;;21.95;100.00;100351.50;5092452;28;20494;-67
2023/07/30 08:39:52;;;;;;;0.45;0.10;;;;;;;22.02;100.00;100358.38;5091734;28;20471;-67
2023/07/30 08:42:18;;;;;;;1.38;0.10;;;;;;;22.20;100.00;100354.91;5084822;28;20035;-67
2023/07/30 08:44:44;;;;;;;0.85;0.10;;;;;;;22.22;100.00;100352.00;5079005;28;20043;-67
2023/07/30 08:47:10;;;;;;;0.57;0.10;;;;;;;22.33;100.00;100360.03;5092134;28;20055;-67
2023/07/30 08:49:35;;;;;;;0.50;0.10;;;;;;;22.40;100.00;100363.41;5092144;28;20050;-67
2023/07/30 08:52:03;;;;;;;0.20;0.10;;;;;;;22.67;100.00;100361.22;5087634;28;20468;-68
2023/07/30 08:54:31;;;;;;;1.42;0.03;;;;;;;22.67;100.00;100361.22;5081141;28;20038;-67
2023/07/30 08:56:58;;;;;;;0.60;0.10;;;;;;;22.61;100.00;100356.81;5091391;28;20032;-67
2023/07/30 08:59:24;;;;;;;1.17;0.10;;;;;;;22.64;100.00;100356.38;5087323;28;20056;-67
2023/07/30 09:01:52;;;;;;;0.30;0.10;;;;;;;22.65;100.00;100358.00;5089764;28;20024;-67
2023/07/30 09:04:18;;;;;;;1.30;0.10;;;;;;;22.81;100.00;100362.66;5091944;28;20036;-67
2023/07/30 09:06:43;;;;;;;0.80;0.10;;;;;;;22.78;100.00;100359.63;5091437;28;20111;-67
2023/07/30 09:09:13;;;;;;;1.48;0.10;;;;;;;22.61;100.00;100354.16;5091847;28;20547;-67
2023/07/30 09:11:39;;;;;;;0.40;0.10;;;;;;;22.56;100.00;100356.69;5091700;28;20086;-67
2023/07/30 09:14:06;;;;;;;1.20;0.10;;;;;;;22.50;100.00;100355.72;5087454;28;20483;-64
2023/07/30 09:16:31;;;;;;;2.40;0.10;;;;;;;22.52;100.00;100353.66;5086432;28;20113;-64
2023/07/30 09:18:57;;;;;;;0.30;0.10;;;;;;;22.57;100.00;100346.88;5091108;28;20386;-64
2023/07/30 09:21:34;;;;;;;0.38;0.10;;;;;;;22.33;100.00;100351.25;5091707;28;20048;-64
2023/07/30 09:24:06;;;;;;;0.43;0.10;;;;;;;22.32;100.00;100353.09;5091148;28;20360;-64
2023/07/30 09:26:42;;;;;;;0.17;0.10;;;;;;;22.29;100.00;100350.91;5091728;28;20046;-64
2023/07/30 09:29:09;;;;;;;0.20;0.10;;;;;;;22.51;100.00;100352.03;5086655;28;20028;-65
2023/07/30 09:31:52;;;;;;;0.28;0.10;;;;;;;22.37;100.00;100339.97;5089248;28;20364;-64
2023/07/30 09:34:18;;;;;;;1.50;0.10;;;;;;;22.28;100.00;100343.16;5091617;28;20070;-64
2023/07/30 09:36:47;;;;;;;1.10;0.20;;;;;;;22.50;100.00;100341.66;5090888;28;20036;-64
2023/07/30 09:39:26;;;;;;;0.28;0.10;;;;;;;22.76;100.00;100335.94;5091236;28;20028;-64
2023/07/30 09:42:00;;;;;;;0.25;0.10;;;;;;;22.62;100.00;100342.50;5089532;28;20055;-64
2023/07/30 09:44:25;;;;;;;0.30;0.10;;;;;;;22.43;100.00;100344.38;5086435;28;20031;-64
2023/07/30 09:46:51;;;;;;;0.30;0.10;;;;;;;22.37;100.00;100333.84;5090710;28;20040;-64
2023/07/30 09:49:17;;;;;;;0.88;0.20;;;;;;;22.44;100.00;100334.59;5091241;28;20024;-64
2023/07/30 09:51:43;;;;;;;0.30;0.10;;;;;;;22.41;100.00;100335.03;5087403;28;20024;-65
2023/07/30 09:54:11;;;;;;;0.40;0.10;;;;;;;22.41;100.00;100329.72;5078451;28;20356;-64
2023/07/30 09:56:37;;;;;;;0.10;0.08;;;;;;;22.36;100.00;100326.94;5091204;28;20028;-64
2023/07/30 09:59:04;;;;;;;1.00;0.10;;;;;;;22.45;100.00;100330.91;5077955;28;20141;-64
2023/07/30 10:01:30;;;;;;;0.35;0.10;;;;;;;22.43;100.00;100328.47;5078421;28;20032;-64
2023/07/30 10:03:57;;;;;;;1.55;0.10;;;;;;;22.29;100.00;100328.84;5084112;28;20131;-64
2023/07/30 10:06:29;;;;;;;0.20;0.10;;;;;;;22.16;100.00;100322.72;5085280;28;20135;-64
2023/07/30 10:08:59;;;;;;;0.30;0.10;;;;;;;22.32;100.00;100325.75;5090589;28;20032;-65
2023/07/30 10:11:27;;;;;;;0.30;0.05;;;;;;;22.35;100.00;100330.63;5091042;28;20020;-65
2023/07/30 10:13:53;;;;;;;0.30;0.10;;;;;;;22.47;100.00;100326.16;5085212;28;20395;-65
2023/07/30 10:16:18;;;;;;;0.75;0.10;;;;;;;22.46;100.00;100322.72;5106438;28;20044;-65
2023/07/30 10:18:44;;;;;;;0.13;0.10;;;;;;;22.51;100.00;100325.50;5090223;28;20036;-64
2023/07/30 10:21:10;;;;;;;0.40;0.10;;;;;;;22.67;100.00;100329.38;5091042;28;20035;-65
2023/07/30 10:23:46;;;;;;;0.28;0.10;;;;;;;22.74;100.00;100323.94;5091205;28;20089;-65
2023/07/30 10:26:11;;;;;;;0.65;0.10;;;;;;;23.07;100.00;100328.78;5090754;28;20024;-64
2023/07/30 10:28:39;;;;;;;0.43;0.10;;;;;;;23.15;100.00;100315.16;5079475;28;20032;-65
2023/07/30 10:31:08;;;;;;;1.30;0.00;;;;;;;23.37;100.00;100313.50;5087497;28;20469;-65
2023/07/30 10:33:53;;;;;;;0.20;0.10;;;;;;;23.61;100.00;100318.84;5090648;28;20036;-65
2023/07/30 10:36:50;;;;;;;0.30;0.00;;;;;;;23.88;100.00;100309.31;5090856;28;20497;-65
2023/07/30 10:39:20;;;;;;;0.20;0.10;;;;;;;24.32;99.56;100309.63;5088446;28;20162;-64
2023/07/30 10:41:50;;;;;;;0.10;0.10;;;;;;;24.59;96.17;100302.66;5088813;28;20040;-65
2023/07/30 10:44:30;;;;;;;0.40;0.10;;;;;;;24.90;84.52;100305.84;5072736;28;20035;-65
2023/07/30 10:46:58;;;;;;;0.10;0.10;;;;;;;25.19;88.68;100304.69;5080092;28;20140;-65
2023/07/30 10:49:24;;;;;;;0.20;0.10;;;;;;;25.36;85.58;100294.81;5090701;28;20032;-65
2023/07/30 10:51:52;;;;;;;0.38;0.10;;;;;;;25.35;85.94;100293.22;5086723;28;20025;-65
2023/07/30 10:54:18;;;;;;;0.10;0.10;;;;;;;25.35;86.92;100293.22;5067548;28;20039;-65
2023/07/30 10:56:44;;;;;;;0.63;0.20;;;;;;;25.36;87.06;100300.16;5081585;28;20149;-65
2023/07/30 10:59:11;;;;;;;0.55;0.10;;;;;;;25.35;87.38;100298.53;5090743;28;20032;-65
2023/07/30 11:01:39;;;;;;;0.50;0.10;;;;;;;25.61;87.46;100297.00;5090479;28;20035;-65
2023/07/30 11:04:12;;;;;;;0.40;0.10;;;;;;;25.86;85.09;100288.56;5085535;28;20066;-64
2023/07/30 11:06:38;;;;;;;0.20;0.10;;;;;;;25.86;86.03;100285.06;5094165;28;20031;-65
2023/07/30 11:09:04;;;;;;;0.52;0.10;;;;;;;25.75;82.56;100281.47;5093550;28;20119;-65
2023/07/30 11:11:30;;;;;;;1.23;0.10;;;;;;;25.80;83.81;100281.53;5094111;28;20118;-65